createdAt,value
2018-04-18T00:00:45.782Z,5.67
2018-04-18T00:03:18.324Z,5.90
2018-04-18T00:05:50.900Z,5.90
2018-04-18T00:08:23.414Z,6.07
2018-04-18T00:10:55.968Z,6.20
2018-04-18T00:13:28.487Z,6.17
2018-04-18T00:16:01.860Z,6.27
2018-04-18T00:18:34.443Z,7.00
2018-04-18T00:21:07.045Z,6.23
2018-04-18T00:23:39.569Z,5.90
2018-04-18T00:26:12.064Z,6.07
2018-04-18T00:28:44.571Z,6.30
2018-04-18T00:31:17.064Z,6.57
2018-04-18T00:33:49.575Z,6.00
2018-04-18T00:36:22.142Z,6.13
2018-04-18T00:38:54.736Z,7.00
2018-04-18T00:41:27.224Z,6.47
2018-04-18T00:43:59.758Z,6.37
2018-04-18T00:46:32.242Z,6.70
2018-04-18T00:49:04.775Z,5.93
2018-04-18T00:51:37.352Z,6.13
2018-04-18T00:54:09.942Z,6.30
2018-04-18T00:56:42.443Z,6.53
2018-04-18T00:59:14.951Z,7.00
2018-04-18T01:01:47.457Z,6.10
2018-04-18T01:04:20.076Z,6.70
2018-04-18T01:06:52.572Z,6.20
2018-04-18T01:09:25.087Z,6.47
2018-04-18T01:11:57.579Z,7.10
2018-04-18T01:14:30.608Z,6.50
2018-04-18T01:17:03.115Z,7.20
2018-04-18T01:19:35.700Z,7.40
2018-04-18T01:22:08.191Z,7.33
2018-04-18T01:24:40.767Z,6.63
2018-04-18T01:27:13.352Z,6.40
2018-04-18T01:29:45.939Z,5.83
2018-04-18T01:32:18.457Z,6.50
2018-04-18T01:34:51.019Z,6.70
2018-04-18T01:37:23.510Z,6.37
2018-04-18T01:39:56.022Z,7.47
2018-04-18T01:42:28.513Z,7.80
2018-04-18T01:45:02.012Z,6.80
2018-04-18T01:47:34.552Z,7.40
2018-04-18T01:50:07.063Z,6.10
2018-04-18T01:52:39.567Z,7.10
2018-04-18T01:55:12.082Z,7.87
2018-04-18T01:57:44.571Z,7.23
2018-04-18T02:00:17.074Z,7.20
2018-04-18T02:02:49.667Z,7.10
2018-04-18T02:05:22.179Z,6.97
2018-04-18T02:07:54.670Z,7.40
2018-04-18T02:10:27.183Z,8.33
2018-04-18T02:12:59.726Z,7.70
2018-04-18T02:15:32.289Z,7.03
2018-04-18T02:18:04.775Z,7.37
2018-04-18T02:20:37.350Z,8.40
2018-04-18T02:23:09.840Z,7.33
2018-04-18T02:25:42.426Z,8.20
2018-04-18T02:28:14.928Z,8.13
2018-04-18T02:30:47.451Z,8.27
2018-04-18T02:33:19.965Z,8.10
2018-04-18T02:35:52.476Z,7.63
2018-04-18T02:38:24.963Z,7.90
2018-04-18T02:40:57.470Z,8.53
2018-04-18T02:43:30.711Z,12.37
2018-04-18T02:46:03.226Z,8.27
2018-04-18T02:48:35.715Z,8.27
2018-04-18T02:51:08.234Z,8.53
2018-04-18T02:53:40.734Z,9.20
2018-04-18T02:56:13.252Z,7.90
2018-04-18T02:58:45.831Z,8.97
2018-04-18T03:01:18.484Z,7.90
2018-04-18T03:03:50.981Z,8.70
2018-04-18T03:06:23.596Z,7.77
2018-04-18T03:08:56.098Z,8.17
2018-04-18T03:11:28.608Z,8.43
2018-04-18T03:14:02.081Z,8.80
2018-04-18T03:16:34.599Z,8.57
2018-04-18T03:19:07.446Z,7.50
2018-04-18T03:21:39.963Z,7.77
2018-04-18T03:24:12.491Z,7.93
2018-04-18T03:26:45.828Z,7.50
2018-04-18T03:29:18.343Z,6.83
2018-04-18T03:31:50.878Z,8.13
2018-04-18T03:34:23.400Z,7.00
2018-04-18T03:36:55.893Z,8.10
2018-04-18T03:39:28.436Z,8.27
2018-04-18T03:42:00.925Z,8.33
2018-04-18T03:44:33.434Z,7.80
2018-04-18T03:47:06.002Z,7.60
2018-04-18T03:49:38.571Z,7.67
2018-04-18T03:52:11.159Z,8.53
2018-04-18T03:54:43.672Z,8.63
2018-04-18T03:57:16.163Z,8.03
2018-04-18T03:59:48.720Z,8.37
2018-04-18T04:02:21.221Z,8.20
2018-04-18T04:04:53.733Z,8.63
2018-04-18T04:07:26.224Z,7.77
2018-04-18T04:09:58.779Z,8.30
2018-04-18T04:12:31.838Z,7.07
2018-04-18T04:15:04.357Z,12.33
2018-04-18T04:17:48.911Z,8.00
2018-04-18T04:20:33.356Z,10.80
2018-04-18T04:23:17.872Z,8.13
2018-04-18T04:25:50.383Z,7.33
2018-04-18T04:28:22.876Z,8.10
2018-04-18T04:30:55.398Z,8.77
2018-04-18T04:33:27.884Z,8.13
2018-04-18T04:36:01.160Z,8.10
2018-04-18T04:38:33.658Z,8.30
2018-04-18T04:41:06.259Z,8.20
2018-04-18T04:43:38.743Z,8.27
2018-04-18T04:46:11.256Z,7.97
2018-04-18T04:48:43.759Z,8.10
2018-04-18T04:51:16.264Z,7.70
2018-04-18T04:53:48.750Z,7.60
2018-04-18T04:56:21.262Z,8.27
2018-04-18T04:58:53.772Z,7.23
2018-04-18T05:01:26.327Z,8.10
2018-04-18T05:03:58.831Z,7.03
2018-04-18T05:06:31.352Z,9.03
2018-04-18T05:09:03.849Z,8.07
2018-04-18T05:11:36.466Z,8.40
2018-04-18T05:14:08.955Z,9.57
2018-04-18T05:16:41.533Z,9.00
2018-04-18T05:19:14.024Z,7.93
2018-04-18T05:21:46.608Z,7.10
2018-04-18T05:24:19.115Z,8.48
2018-04-18T05:26:51.683Z,8.25
2018-04-18T05:29:24.183Z,7.18
2018-04-18T05:31:56.701Z,6.85
2018-04-18T05:34:29.187Z,6.57
2018-04-18T05:37:02.559Z,6.22
2018-04-18T05:39:35.052Z,6.65
2018-04-18T05:42:07.561Z,6.32
2018-04-18T05:44:40.098Z,5.03
2018-04-18T05:47:12.698Z,4.95
2018-04-18T05:49:45.257Z,5.10
2018-04-18T05:52:17.780Z,4.93
2018-04-18T05:54:50.310Z,4.32
2018-04-18T05:57:22.833Z,5.68
2018-04-18T05:59:55.332Z,4.95
2018-04-18T06:02:27.869Z,4.60
2018-04-18T06:05:01.457Z,4.90
2018-04-18T06:07:33.976Z,5.78
2018-04-18T06:10:06.467Z,5.05
2018-04-18T06:12:38.971Z,4.85
2018-04-18T06:15:11.461Z,5.07
2018-04-18T06:17:44.032Z,5.15
2018-04-18T06:20:16.522Z,5.43
2018-04-18T06:22:49.088Z,6.70
2018-04-18T06:25:21.681Z,6.12
2018-04-18T06:27:54.189Z,7.15
2018-04-18T06:30:26.678Z,6.35
2018-04-18T06:32:59.229Z,5.97
2018-04-18T06:35:31.867Z,5.87
2018-04-18T06:38:04.408Z,6.12
2018-04-18T06:40:36.912Z,7.03
2018-04-18T06:43:09.423Z,7.85
2018-04-18T06:45:41.956Z,8.50
2018-04-18T06:48:14.475Z,9.57
2018-04-18T06:50:46.982Z,10.85
2018-04-18T06:53:19.507Z,11.30
2018-04-18T06:55:52.023Z,11.80
2018-04-18T06:58:24.548Z,11.90
2018-04-18T07:00:57.058Z,11.40
2018-04-18T07:03:29.839Z,12.55
2018-04-18T07:06:02.363Z,11.93
2018-04-18T07:08:34.863Z,12.45
2018-04-18T07:11:07.383Z,15.00
2018-04-18T07:13:39.890Z,14.32
2018-04-18T07:16:12.428Z,13.77
2018-04-18T07:18:44.922Z,15.75
2018-04-18T07:21:17.451Z,13.73
2018-04-18T07:23:49.957Z,15.55
2018-04-18T07:26:22.491Z,14.43
2018-04-18T07:28:54.991Z,12.88
2018-04-18T07:31:27.503Z,13.65
2018-04-18T07:34:00.500Z,13.23
2018-04-18T07:36:33.027Z,13.23
2018-04-18T07:39:06.314Z,13.50
2018-04-18T07:41:38.936Z,12.30
2018-04-18T07:44:11.515Z,12.70
2018-04-18T07:46:44.034Z,13.73
2018-04-18T07:49:16.534Z,12.55
2018-04-18T07:51:49.053Z,14.15
2018-04-18T07:54:21.556Z,14.38
2018-04-18T07:56:54.075Z,15.82
2018-04-18T07:59:26.575Z,17.52
2018-04-18T08:01:59.160Z,16.33
2018-04-18T08:04:32.488Z,19.25
2018-04-18T08:07:05.102Z,18.70
2018-04-18T08:09:37.602Z,19.90
2018-04-18T08:12:10.175Z,18.98
2018-04-18T08:14:42.685Z,19.27
2018-04-18T08:17:15.203Z,16.98
2018-04-18T08:19:47.712Z,15.48
2018-04-18T08:22:20.235Z,13.20
2018-04-18T08:24:52.735Z,15.48
2018-04-18T08:27:25.259Z,17.70
2018-04-18T08:29:57.759Z,12.63
2018-04-18T08:32:30.663Z,15.20
2018-04-18T08:35:03.158Z,13.98
2018-04-18T08:37:35.676Z,13.30
2018-04-18T08:40:08.170Z,13.27
2018-04-18T08:42:40.695Z,13.85
2018-04-18T08:45:13.208Z,13.52
2018-04-18T08:47:45.733Z,13.82
2018-04-18T08:50:18.354Z,15.27
2018-04-18T08:52:50.892Z,14.25
2018-04-18T08:55:23.384Z,12.60
2018-04-18T08:57:55.902Z,11.60
2018-04-18T09:00:28.407Z,11.90
2018-04-18T09:03:00.923Z,11.77
2018-04-18T09:05:33.424Z,11.45
2018-04-18T09:08:05.953Z,12.48
2018-04-18T09:10:38.459Z,13.38
2018-04-18T09:13:11.018Z,11.93
2018-04-18T09:15:43.571Z,12.52
2018-04-18T09:18:16.075Z,12.43
2018-04-18T09:20:48.584Z,10.38
2018-04-18T09:23:21.149Z,9.52
2018-04-18T09:25:53.735Z,10.65
2018-04-18T09:28:26.261Z,9.63
2018-04-18T09:30:58.752Z,8.90
2018-04-18T09:33:31.964Z,8.57
2018-04-18T09:36:04.489Z,7.82
2018-04-18T09:38:37.067Z,7.93
2018-04-18T09:41:09.664Z,7.82
2018-04-18T09:43:42.183Z,7.82
2018-04-18T09:46:14.734Z,7.00
2018-04-18T09:48:47.414Z,7.15
2018-04-18T09:51:19.916Z,7.15
2018-04-18T09:53:52.427Z,6.40
2018-04-18T09:56:24.982Z,7.07
2018-04-18T09:58:57.562Z,5.95
2018-04-18T10:01:35.712Z,6.53
2018-04-18T10:04:09.977Z,5.53
2018-04-18T10:06:42.483Z,7.25
2018-04-18T10:09:15.008Z,6.03
2018-04-18T10:11:47.518Z,5.75
2018-04-18T10:14:20.032Z,5.85
2018-04-18T10:16:52.527Z,6.22
2018-04-18T10:19:25.058Z,5.32
2018-04-18T10:21:57.610Z,5.50
2018-04-18T10:24:30.931Z,5.45
2018-04-18T10:27:03.453Z,5.78
2018-04-18T10:29:36.025Z,5.40
2018-04-18T10:32:08.532Z,5.53
2018-04-18T10:34:41.030Z,4.32
2018-04-18T10:37:13.581Z,5.40
2018-04-18T10:39:46.112Z,4.93
2018-04-18T10:42:18.623Z,5.62
2018-04-18T10:44:51.136Z,5.25
2018-04-18T10:47:23.652Z,5.28
2018-04-18T10:49:56.252Z,4.50
2018-04-18T10:52:28.775Z,4.75
2018-04-18T10:55:01.276Z,4.32
2018-04-18T10:57:33.809Z,4.12
2018-04-18T11:00:06.405Z,5.43
2018-04-18T11:02:38.921Z,5.50
2018-04-18T11:05:11.483Z,4.35
2018-04-18T11:07:44.000Z,5.37
2018-04-18T11:10:16.495Z,4.47
2018-04-18T11:12:49.000Z,4.68
2018-04-18T11:15:21.511Z,5.90
2018-04-18T11:17:54.079Z,4.68
2018-04-18T11:20:26.673Z,5.32
2018-04-18T11:22:59.199Z,4.97
2018-04-18T11:25:31.937Z,4.78
2018-04-18T11:28:04.464Z,5.32
2018-04-18T11:30:36.969Z,4.68
2018-04-18T11:33:09.538Z,5.05
2018-04-18T11:35:42.055Z,5.60
2018-04-18T11:38:14.685Z,5.65
2018-04-18T11:40:47.311Z,5.00
2018-04-18T11:43:19.871Z,4.85
2018-04-18T11:45:52.404Z,4.50
2018-04-18T11:48:24.930Z,4.40
2018-04-18T11:50:57.443Z,5.10
2018-04-18T11:53:30.549Z,5.30
2018-04-18T11:56:03.035Z,4.72
2018-04-18T11:58:35.558Z,5.28
2018-04-18T12:01:08.059Z,5.32
2018-04-18T12:03:40.578Z,4.70
2018-04-18T12:06:13.131Z,4.45
2018-04-18T12:08:45.650Z,4.97
2018-04-18T12:11:18.195Z,5.35
2018-04-18T12:13:50.707Z,4.62
2018-04-18T12:16:23.194Z,5.15
2018-04-18T12:18:55.709Z,4.97
2018-04-18T12:21:28.203Z,4.32
2018-04-18T12:24:00.715Z,5.25
2018-04-18T12:26:33.291Z,4.90
2018-04-18T12:29:05.888Z,5.10
2018-04-18T12:31:38.471Z,5.12
2018-04-18T12:34:11.060Z,4.57
2018-04-18T12:36:43.636Z,4.62
2018-04-18T12:39:16.157Z,4.90
2018-04-18T12:41:48.772Z,4.78
2018-04-18T12:44:21.293Z,4.22
2018-04-18T12:46:53.871Z,4.80
2018-04-18T12:49:26.456Z,4.43
2018-04-18T12:51:59.040Z,4.82
2018-04-18T12:54:32.211Z,5.37
2018-04-18T12:57:04.732Z,4.93
2018-04-18T12:59:37.265Z,5.75
2018-04-18T13:02:09.799Z,5.45
2018-04-18T13:04:42.324Z,5.18
2018-04-18T13:07:14.811Z,5.20
2018-04-18T13:09:47.323Z,5.25
2018-04-18T13:12:19.818Z,4.90
2018-04-18T13:14:52.359Z,4.65
2018-04-18T13:17:24.859Z,4.85
2018-04-18T13:19:57.371Z,4.62
2018-04-18T13:22:29.859Z,4.68
2018-04-18T13:25:02.374Z,4.72
2018-04-18T13:27:34.873Z,5.55
2018-04-18T13:30:07.387Z,5.00
2018-04-18T13:32:39.901Z,4.57
2018-04-18T13:35:12.420Z,4.72
2018-04-18T13:37:44.914Z,4.07
2018-04-18T13:40:17.454Z,4.90
2018-04-18T13:42:50.140Z,4.40
2018-04-18T13:45:22.672Z,4.60
2018-04-18T13:47:55.168Z,4.47
2018-04-18T13:50:27.706Z,4.90
2018-04-18T13:53:00.877Z,4.70
2018-04-18T13:55:33.398Z,4.57
2018-04-18T13:58:05.890Z,4.43
2018-04-18T14:00:38.447Z,4.25
2018-04-18T14:03:10.971Z,4.50
2018-04-18T14:05:43.468Z,5.00
2018-04-18T14:08:15.986Z,4.82
2018-04-18T14:10:48.477Z,4.72
2018-04-18T14:13:20.992Z,4.43
2018-04-18T14:15:53.551Z,4.40
2018-04-18T14:18:26.067Z,4.50
2018-04-18T14:20:58.562Z,3.90
2018-04-18T14:23:31.935Z,3.85
2018-04-18T14:26:04.432Z,4.70
2018-04-18T14:28:36.997Z,4.50
2018-04-18T14:31:09.588Z,3.95
2018-04-18T14:33:42.107Z,4.45
2018-04-18T14:36:14.658Z,4.30
2018-04-18T14:38:47.166Z,5.00
2018-04-18T14:41:19.664Z,4.22
2018-04-18T14:43:52.183Z,4.80
2018-04-18T14:46:24.674Z,4.43
2018-04-18T14:48:57.180Z,4.47
2018-04-18T14:51:30.268Z,3.90
2018-04-18T14:54:02.778Z,4.45
2018-04-18T14:56:35.269Z,4.47
2018-04-18T14:59:07.778Z,4.10
2018-04-18T15:01:40.273Z,4.10
2018-04-18T15:04:12.783Z,4.03
2018-04-18T15:06:45.270Z,4.90
2018-04-18T15:09:17.850Z,4.25
2018-04-18T15:11:51.074Z,5.20
2018-04-18T15:14:23.660Z,5.03
2018-04-18T15:16:56.292Z,4.20
2018-04-18T15:19:29.161Z,4.30
2018-04-18T15:22:02.758Z,4.70
2018-04-18T15:24:35.267Z,4.43
2018-04-18T15:27:07.764Z,4.57
2018-04-18T15:29:40.319Z,4.78
2018-04-18T15:32:12.807Z,4.20
2018-04-18T15:34:45.399Z,4.70
2018-04-18T15:37:17.914Z,5.50
2018-04-18T15:39:50.431Z,4.70
2018-04-18T15:42:23.039Z,4.40
2018-04-18T15:44:55.548Z,4.85
2018-04-18T15:47:28.445Z,4.75
2018-04-18T15:50:00.976Z,4.65
2018-04-18T15:52:33.497Z,4.45
2018-04-18T15:55:06.020Z,4.50
2018-04-18T15:57:38.514Z,4.30
2018-04-18T16:00:11.046Z,3.87
2018-04-18T16:02:43.653Z,4.37
2018-04-18T16:05:16.356Z,4.10
2018-04-18T16:07:48.921Z,4.70
2018-04-18T16:10:21.441Z,4.07
2018-04-18T16:12:54.327Z,4.55
2018-04-18T16:15:27.004Z,4.15
2018-04-18T16:17:59.736Z,4.30
2018-04-18T16:20:32.592Z,4.75
2018-04-18T16:23:05.075Z,4.78
2018-04-18T16:25:37.633Z,4.37
2018-04-18T16:28:10.103Z,4.43
2018-04-18T16:30:42.684Z,4.47
2018-04-18T16:33:15.184Z,4.22
2018-04-18T16:35:47.704Z,4.28
2018-04-18T16:38:20.199Z,4.75
2018-04-18T16:40:52.720Z,4.05
2018-04-18T16:43:25.238Z,4.43
2018-04-18T16:45:57.747Z,4.12
2018-04-18T16:48:30.949Z,4.90
2018-04-18T16:51:03.473Z,4.70
2018-04-18T16:53:35.966Z,4.22
2018-04-18T16:56:08.472Z,4.25
2018-04-18T16:58:40.967Z,3.70
2018-04-18T17:01:13.670Z,3.65
2018-04-18T17:03:46.200Z,4.03
2018-04-18T17:06:18.822Z,4.25
2018-04-18T17:08:51.324Z,3.70
2018-04-18T17:11:23.892Z,3.80
2018-04-18T17:13:56.391Z,3.42
2018-04-18T17:16:29.024Z,3.53
2018-04-18T17:19:02.386Z,3.10
2018-04-18T17:21:34.934Z,3.42
2018-04-18T17:24:07.639Z,3.78
2018-04-18T17:26:40.161Z,3.55
2018-04-18T17:29:12.732Z,3.97
2018-04-18T17:31:45.316Z,3.30
2018-04-18T17:34:18.055Z,3.70
2018-04-18T17:36:50.557Z,3.35
2018-04-18T17:39:23.081Z,3.25
2018-04-18T17:41:55.647Z,3.08
2018-04-18T17:44:28.352Z,3.03
2018-04-18T17:47:00.861Z,3.53
2018-04-18T17:49:33.535Z,2.90
2018-04-18T17:52:06.083Z,3.72
2018-04-18T17:54:38.599Z,3.55
2018-04-18T17:57:11.087Z,3.40
2018-04-18T17:59:43.632Z,3.20
2018-04-18T18:02:16.131Z,3.08
2018-04-18T18:04:48.646Z,3.22
2018-04-18T18:07:21.136Z,3.12
2018-04-18T18:09:53.672Z,3.05
2018-04-18T18:12:26.302Z,3.33
2018-04-18T18:14:58.824Z,3.33
2018-04-18T18:17:32.419Z,3.80
2018-04-18T18:20:04.936Z,3.53
2018-04-18T18:22:37.439Z,3.22
2018-04-18T18:25:10.129Z,3.10
2018-04-18T18:27:42.626Z,3.40
2018-04-18T18:30:15.139Z,3.33
2018-04-18T18:32:47.634Z,3.42
2018-04-18T18:35:20.161Z,3.30
2018-04-18T18:37:52.652Z,3.55
2018-04-18T18:40:25.234Z,3.70
2018-04-18T18:42:57.806Z,3.85
2018-04-18T18:45:31.172Z,3.35
2018-04-18T18:48:03.660Z,3.53
2018-04-18T18:50:36.167Z,3.67
2018-04-18T18:53:08.955Z,3.12
2018-04-18T18:55:41.554Z,3.20
2018-04-18T18:58:14.042Z,3.30
2018-04-18T19:00:46.550Z,3.60
2018-04-18T19:03:19.045Z,3.42
2018-04-18T19:05:51.554Z,3.75
2018-04-18T19:08:24.076Z,3.60
2018-04-18T19:10:56.601Z,3.87
2018-04-18T19:13:29.086Z,3.87
2018-04-18T19:16:02.563Z,4.30
2018-04-18T19:18:35.306Z,3.78
2018-04-18T19:21:07.820Z,4.30
2018-04-18T19:23:40.587Z,4.12
2018-04-18T19:26:13.484Z,4.05
2018-04-18T19:28:45.990Z,3.40
2018-04-18T19:31:18.567Z,3.67
2018-04-18T19:33:51.086Z,3.58
2018-04-18T19:36:23.626Z,3.62
2018-04-18T19:38:56.138Z,4.15
2018-04-18T19:41:29.030Z,3.58
2018-04-18T19:44:02.272Z,4.05
2018-04-18T19:46:34.788Z,3.83
2018-04-18T19:49:07.404Z,3.58
2018-04-18T19:51:40.095Z,4.03
2018-04-18T19:54:12.590Z,4.03
2018-04-18T19:56:45.391Z,3.90
2018-04-18T19:59:17.907Z,4.15
2018-04-18T20:01:50.527Z,4.18
2018-04-18T20:04:23.116Z,3.83
2018-04-18T20:06:55.917Z,4.03
2018-04-18T20:09:28.411Z,4.62
2018-04-18T20:12:01.879Z,4.45
2018-04-18T20:14:34.373Z,5.07
2018-04-18T20:17:06.973Z,4.65
2018-04-18T20:19:39.560Z,4.85
2018-04-18T20:22:12.146Z,4.30
2018-04-18T20:24:44.726Z,4.85
2018-04-18T20:27:17.236Z,4.50
2018-04-18T20:29:49.795Z,4.87
2018-04-18T20:32:22.388Z,4.90
2018-04-18T20:34:54.878Z,4.12
2018-04-18T20:37:27.463Z,4.50
2018-04-18T20:40:00.923Z,4.18
2018-04-18T20:42:33.443Z,4.35
2018-04-18T20:45:05.938Z,5.15
2018-04-18T20:47:38.481Z,4.65
2018-04-18T20:50:10.975Z,4.93
2018-04-18T20:52:43.597Z,4.30
2018-04-18T20:55:16.181Z,4.80
2018-04-18T20:57:48.711Z,4.43
2018-04-18T21:00:21.204Z,5.30
2018-04-18T21:02:53.723Z,5.35
2018-04-18T21:05:26.220Z,4.80
2018-04-18T21:07:58.737Z,4.85
2018-04-18T21:10:32.099Z,5.10
2018-04-18T21:13:04.679Z,4.57
2018-04-18T21:15:37.263Z,5.45
2018-04-18T21:18:09.784Z,5.32
2018-04-18T21:20:42.372Z,4.78
2018-04-18T21:23:14.927Z,5.28
2018-04-18T21:25:47.423Z,5.40
2018-04-18T21:28:19.935Z,5.20
2018-04-18T21:30:52.428Z,4.55
2018-04-18T21:33:24.940Z,4.90
2018-04-18T21:35:57.448Z,5.40
2018-04-18T21:38:30.673Z,4.93
2018-04-18T21:41:03.180Z,4.82
2018-04-18T21:43:35.722Z,5.00
2018-04-18T21:46:08.211Z,5.07
2018-04-18T21:48:40.787Z,5.37
2018-04-18T21:51:13.277Z,4.72
2018-04-18T21:53:45.787Z,4.47
2018-04-18T21:56:18.346Z,4.75
2018-04-18T21:58:50.857Z,4.82
2018-04-18T22:01:23.399Z,4.50
2018-04-18T22:03:55.991Z,4.25
2018-04-18T22:06:28.485Z,4.60
2018-04-18T22:09:01.780Z,4.50
2018-04-18T22:11:34.276Z,4.93
2018-04-18T22:14:06.844Z,5.32
2018-04-18T22:16:39.394Z,4.57
2018-04-18T22:19:11.887Z,4.93
2018-04-18T22:21:44.372Z,4.70
2018-04-18T22:24:16.879Z,4.22
2018-04-18T22:26:49.366Z,4.87
2018-04-18T22:29:21.879Z,4.97
2018-04-18T22:31:54.367Z,5.18
2018-04-18T22:34:26.885Z,5.18
2018-04-18T22:37:01.135Z,5.28
2018-04-18T22:39:35.835Z,4.80
2018-04-18T22:42:08.374Z,5.00
2018-04-18T22:44:40.948Z,4.53
2018-04-18T22:47:13.501Z,5.57
2018-04-18T22:49:46.041Z,9.82
2018-04-18T22:52:18.605Z,6.15
2018-04-18T22:54:51.134Z,5.65
2018-04-18T22:57:23.639Z,5.50
2018-04-18T22:59:56.268Z,5.50
2018-04-18T23:02:28.844Z,5.22
2018-04-18T23:05:02.142Z,5.53
2018-04-18T23:07:34.635Z,6.78
2018-04-18T23:10:07.227Z,5.93
2018-04-18T23:12:39.723Z,7.55
2018-04-18T23:15:12.244Z,6.65
2018-04-18T23:17:44.773Z,7.90
2018-04-18T23:20:17.321Z,7.18
2018-04-18T23:22:49.806Z,7.28
2018-04-18T23:25:22.419Z,7.45
2018-04-18T23:27:54.906Z,6.60
2018-04-18T23:30:27.427Z,6.95
2018-04-18T23:33:00.199Z,6.47
2018-04-18T23:35:32.718Z,6.40
2018-04-18T23:38:05.223Z,6.17
2018-04-18T23:40:37.731Z,5.10
2018-04-18T23:43:10.225Z,5.97
2018-04-18T23:45:42.752Z,5.67
2018-04-18T23:48:15.241Z,5.53
2018-04-18T23:50:47.757Z,5.00
2018-04-18T23:53:20.256Z,5.20
2018-04-18T23:55:52.780Z,5.50
2018-04-18T23:58:25.280Z,5.63
